Godman Army Air Field Fort Knox US
ICAO: KFTK
IATA: FTK
Category: Medium
Scheduled Services: No

Elevation: 756 ft
TransAlt. 18000 ft.

Airport Communications:
LOUISVILLE APP/DEP:123.675
ATIS:109.6
CTAF:126.8
GND:121.9
AIR TO AIR:23.75
BASE OPS:126.2
TWR:126.8

KFTK Zoom In..

Runways:

(A) RW 05 length 2366 ft width 90 ft
---- / hdg 49

(B) RW 15 length 4853 ft width 75 ft
---- / hdg 151

(C) RW 18 length 5185 ft width 148 ft
---- / hdg 179

(D) RW 23 length 2366 ft width 90 ft
---- / hdg 229

(E) RW 33 length 4853 ft width 75 ft
---- / hdg 331

(F) RW 36 length 5185 ft width 148 ft
---- / hdg 359

Location; KFTK
Day. 16 / Time. 18.16 Zulu
* Altimeter: 29.99
* Temperature: 27° c. 80.6°f.
* Wind from: 210° Speed 06 kn.
Dewpoint: 23° c.
Visibility: 10 Statute Miles.
Clouds: Few 1400 ft.
Clouds: Broken 2300 ft.
Clouds: Broken 3300 ft.
Clouds: Broken 2300 ft.
Clouds: Scattered 00 ft.

KFTK 161816Z AUTO 21006KT 10SM FEW014 BKN023 BKN033 27/23 A2999 RMK AO2 CIG 023V035 BKN023 V SCT SLP152


Wind From 210°
Speed 06 kn.

 
 
jpsmedia.com for Web Design worldairports.se 2018   terms of use